createdAt,value
2023-05-05T00:02:01.774Z,19.88
2023-05-05T00:04:36.408Z,19.96
2023-05-05T00:07:09.145Z,19.98
2023-05-05T00:09:35.781Z,19.91
2023-05-05T00:12:05.325Z,20.00
2023-05-05T00:14:31.906Z,19.98
2023-05-05T00:16:58.471Z,19.90
2023-05-05T00:19:25.030Z,19.84
2023-05-05T00:21:59.333Z,19.88
2023-05-05T00:24:26.193Z,19.91
2023-05-05T00:26:59.042Z,19.89
2023-05-05T00:29:25.617Z,19.91
2023-05-05T00:31:52.237Z,19.88
2023-05-05T00:34:18.786Z,19.92
2023-05-05T00:36:45.382Z,19.87
2023-05-05T00:39:12.702Z,19.84
2023-05-05T00:41:42.536Z,19.84
2023-05-05T00:44:09.127Z,19.88
2023-05-05T00:46:35.913Z,19.86
2023-05-05T00:49:02.711Z,19.84
2023-05-05T00:51:31.929Z,19.86
2023-05-05T00:53:58.504Z,19.82
2023-05-05T00:56:27.367Z,19.82
2023-05-05T00:58:56.928Z,19.78
2023-05-05T01:01:27.895Z,19.79
2023-05-05T01:03:58.888Z,19.81
2023-05-05T01:07:03.985Z,19.77
2023-05-05T01:09:52.311Z,19.79
2023-05-05T01:12:26.168Z,19.83
2023-05-05T01:15:33.779Z,19.73
2023-05-05T01:18:14.716Z,19.73
2023-05-05T01:20:54.902Z,19.71
2023-05-05T01:23:33.360Z,19.76
2023-05-05T01:26:20.087Z,19.72
2023-05-05T01:29:04.688Z,19.74
2023-05-05T01:31:54.507Z,19.72
2023-05-05T01:34:25.290Z,19.80
2023-05-05T01:37:02.631Z,19.69
2023-05-05T01:39:31.802Z,19.74
2023-05-05T01:42:05.974Z,19.71
2023-05-05T01:44:38.870Z,19.71
2023-05-05T01:47:09.535Z,19.68
2023-05-05T01:49:37.083Z,19.77
2023-05-05T01:52:08.345Z,19.70
2023-05-05T01:54:39.855Z,19.69
2023-05-05T01:57:07.681Z,19.67
2023-05-05T01:59:34.385Z,19.68
2023-05-05T02:02:02.042Z,19.59
2023-05-05T02:04:29.810Z,19.64
2023-05-05T02:06:57.144Z,19.65
2023-05-05T02:09:25.577Z,19.60
2023-05-05T02:11:56.523Z,19.64
2023-05-05T02:14:24.509Z,19.64
2023-05-05T02:16:51.434Z,19.62
2023-05-05T02:19:19.555Z,19.65
2023-05-05T02:21:47.817Z,19.68
2023-05-05T02:24:18.751Z,19.67
2023-05-05T02:26:46.131Z,19.51
2023-05-05T02:29:36.899Z,19.61
2023-05-05T02:32:21.041Z,19.53
2023-05-05T02:34:51.152Z,19.52
2023-05-05T02:37:20.260Z,19.55
2023-05-05T02:40:00.907Z,19.39
2023-05-05T02:42:39.108Z,19.49
2023-05-05T02:45:13.051Z,19.55
2023-05-05T02:47:45.332Z,19.50
2023-05-05T02:50:13.366Z,19.49
2023-05-05T02:52:46.481Z,19.46
2023-05-05T02:55:15.950Z,19.50
2023-05-05T02:57:59.480Z,19.46
2023-05-05T03:00:47.581Z,19.51
2023-05-05T03:03:55.896Z,19.55
2023-05-05T03:06:22.997Z,19.44
2023-05-05T03:08:54.719Z,19.50
2023-05-05T03:11:29.401Z,19.45
2023-05-05T03:14:10.262Z,19.47
2023-05-05T03:16:38.610Z,19.34
2023-05-05T03:19:05.692Z,19.41
2023-05-05T03:21:33.378Z,19.43
2023-05-05T03:23:59.994Z,19.39
2023-05-05T03:26:26.793Z,19.40
2023-05-05T03:28:53.358Z,19.39
2023-05-05T03:31:19.975Z,19.39
2023-05-05T03:33:50.359Z,19.31
2023-05-05T03:36:17.038Z,19.42
2023-05-05T03:38:43.579Z,19.36
2023-05-05T03:41:11.424Z,19.42
2023-05-05T03:43:41.372Z,19.36
2023-05-05T03:46:08.113Z,19.33
2023-05-05T03:48:34.709Z,19.26
2023-05-05T03:51:01.339Z,19.30
2023-05-05T03:53:27.963Z,19.23
2023-05-05T03:55:54.502Z,19.26
2023-05-05T03:58:21.070Z,19.29
2023-05-05T04:00:47.711Z,19.26
2023-05-05T04:03:14.379Z,19.23
2023-05-05T04:05:41.040Z,19.21
2023-05-05T04:08:07.687Z,19.17
2023-05-05T04:10:34.335Z,19.32
2023-05-05T04:13:03.498Z,19.15
2023-05-05T04:15:30.291Z,19.21
2023-05-05T04:17:56.899Z,19.19
2023-05-05T04:20:23.625Z,19.17
2023-05-05T04:22:52.735Z,19.13
2023-05-05T04:25:19.870Z,19.17
2023-05-05T04:27:47.070Z,19.13
2023-05-05T04:30:13.755Z,19.14
2023-05-05T04:32:40.358Z,19.14
2023-05-05T04:35:07.814Z,19.13
2023-05-05T04:37:35.923Z,18.92
2023-05-05T04:40:02.506Z,19.05
2023-05-05T04:42:29.168Z,19.09
2023-05-05T04:44:55.775Z,19.07
2023-05-05T04:47:22.626Z,19.01
2023-05-05T04:49:52.056Z,19.08
2023-05-05T04:52:18.633Z,19.11
2023-05-05T04:54:45.203Z,19.03
2023-05-05T04:57:11.763Z,19.06
2023-05-05T04:59:38.338Z,19.03
2023-05-05T05:02:08.010Z,19.05
2023-05-05T05:04:34.563Z,19.04
2023-05-05T05:07:01.594Z,19.05
2023-05-05T05:09:28.175Z,18.98
2023-05-05T05:11:58.577Z,18.99
2023-05-05T05:14:25.586Z,18.93
2023-05-05T05:16:52.424Z,18.85
2023-05-05T05:19:19.223Z,19.06
2023-05-05T05:21:45.792Z,18.91
2023-05-05T05:24:13.188Z,18.89
2023-05-05T05:26:40.512Z,18.85
2023-05-05T05:29:07.229Z,18.86
2023-05-05T05:31:34.506Z,18.88
2023-05-05T05:34:01.203Z,18.89
2023-05-05T05:36:27.744Z,18.77
2023-05-05T05:38:55.916Z,18.81
2023-05-05T05:41:22.495Z,18.82
2023-05-05T05:43:49.054Z,18.87
2023-05-05T05:46:15.637Z,18.82
2023-05-05T05:48:42.240Z,18.86
2023-05-05T05:51:08.833Z,18.88
2023-05-05T05:53:35.685Z,18.90
2023-05-05T05:56:02.246Z,18.81
2023-05-05T05:58:31.081Z,18.80
2023-05-05T06:00:59.589Z,18.84
2023-05-05T06:03:26.761Z,18.83
2023-05-05T06:05:53.510Z,18.76
2023-05-05T06:08:20.076Z,18.88
2023-05-05T06:10:49.742Z,19.03
2023-05-05T06:13:16.498Z,19.02
2023-05-05T06:15:43.152Z,18.88
2023-05-05T06:18:09.793Z,18.74
2023-05-05T06:20:36.446Z,18.74
2023-05-05T06:23:06.060Z,18.68
2023-05-05T06:25:32.658Z,18.76
2023-05-05T06:28:00.103Z,18.77
2023-05-05T06:30:26.863Z,18.82
2023-05-05T06:32:54.367Z,18.82
2023-05-05T06:35:22.092Z,18.83
2023-05-05T06:37:48.638Z,18.73
2023-05-05T06:40:15.240Z,18.72
2023-05-05T06:42:41.870Z,18.70
2023-05-05T06:45:08.829Z,18.68
2023-05-05T06:47:36.085Z,18.66
2023-05-05T06:50:02.745Z,18.61
2023-05-05T06:52:29.337Z,18.58
2023-05-05T06:54:55.938Z,18.62
2023-05-05T06:57:22.500Z,18.69
2023-05-05T06:59:49.074Z,18.67
2023-05-05T07:02:15.719Z,18.68
2023-05-05T07:04:44.276Z,18.68
2023-05-05T07:07:10.875Z,18.68
2023-05-05T07:09:37.455Z,18.67
2023-05-05T07:12:04.474Z,18.67
2023-05-05T07:14:31.080Z,18.68
2023-05-05T07:16:57.878Z,18.69
2023-05-05T07:19:24.682Z,18.68
2023-05-05T07:21:52.106Z,18.67
2023-05-05T07:24:18.752Z,18.71
2023-05-05T07:26:45.338Z,18.73
2023-05-05T07:29:13.485Z,18.75
2023-05-05T07:31:40.126Z,18.82
2023-05-05T07:34:06.688Z,18.81
2023-05-05T07:36:33.266Z,18.91
2023-05-05T07:39:00.553Z,18.80
2023-05-05T07:41:27.129Z,18.81
2023-05-05T07:43:53.694Z,18.75
2023-05-05T07:46:20.380Z,18.81
2023-05-05T07:48:47.143Z,18.82
2023-05-05T07:51:13.754Z,18.81
2023-05-05T07:53:41.142Z,18.81
2023-05-05T07:56:08.852Z,18.87
2023-05-05T07:58:35.567Z,18.82
2023-05-05T08:01:02.765Z,18.97
2023-05-05T08:03:29.567Z,19.00
2023-05-05T08:05:57.295Z,18.97
2023-05-05T08:08:25.060Z,19.17
2023-05-05T08:10:53.215Z,19.13
2023-05-05T08:13:20.158Z,19.06
2023-05-05T08:15:46.938Z,19.07
2023-05-05T08:18:14.498Z,19.09
2023-05-05T08:20:41.284Z,19.06
2023-05-05T08:23:07.919Z,19.08
2023-05-05T08:25:34.460Z,19.15
2023-05-05T08:28:03.682Z,19.26
2023-05-05T08:30:30.755Z,19.32
2023-05-05T08:32:57.525Z,19.36
2023-05-05T08:35:24.354Z,19.53
2023-05-05T08:37:51.770Z,19.47
2023-05-05T08:40:18.398Z,19.46
2023-05-05T08:42:45.762Z,19.53
2023-05-05T08:45:12.720Z,19.48
2023-05-05T08:47:39.721Z,19.58
2023-05-05T08:50:06.941Z,19.52
2023-05-05T08:52:40.289Z,19.61
2023-05-05T08:55:13.517Z,19.68
2023-05-05T08:57:56.932Z,19.70
2023-05-05T09:00:24.831Z,19.70
2023-05-05T09:02:51.746Z,19.78
2023-05-05T09:05:18.517Z,19.73
2023-05-05T09:07:45.248Z,19.76
2023-05-05T09:10:12.555Z,19.83
2023-05-05T09:12:40.527Z,19.85
2023-05-05T09:15:11.656Z,19.85
2023-05-05T09:17:39.203Z,19.86
2023-05-05T09:20:07.394Z,19.90
2023-05-05T09:22:46.195Z,19.94
2023-05-05T09:25:17.112Z,19.94
2023-05-05T09:27:49.873Z,20.02
2023-05-05T09:30:18.226Z,19.96
2023-05-05T09:32:45.016Z,20.05
2023-05-05T09:35:11.699Z,20.11
2023-05-05T09:37:38.723Z,20.11
2023-05-05T09:40:07.369Z,20.15
2023-05-05T09:42:35.245Z,20.24
2023-05-05T09:45:01.808Z,20.30
2023-05-05T09:47:35.653Z,20.30
2023-05-05T09:50:02.955Z,20.34
2023-05-05T09:52:30.456Z,20.25
2023-05-05T09:54:57.325Z,20.18
2023-05-05T09:57:33.988Z,20.19
2023-05-05T10:00:01.943Z,20.12
2023-05-05T10:02:35.573Z,20.18
2023-05-05T10:05:05.262Z,20.17
2023-05-05T10:07:31.915Z,20.22
2023-05-05T10:10:00.218Z,20.34
2023-05-05T10:12:28.119Z,20.43
2023-05-05T10:14:56.187Z,20.51
2023-05-05T10:17:23.441Z,20.55
2023-05-05T10:19:57.300Z,20.63
2023-05-05T10:22:24.714Z,20.65
2023-05-05T10:25:02.597Z,20.64
2023-05-05T10:27:33.970Z,20.65
2023-05-05T10:30:20.164Z,20.63
2023-05-05T10:33:14.178Z,20.62
2023-05-05T10:35:52.760Z,20.70
2023-05-05T10:38:19.959Z,20.77
2023-05-05T10:40:49.759Z,20.76
2023-05-05T10:43:16.880Z,20.73
2023-05-05T10:45:58.901Z,20.79
2023-05-05T10:48:39.609Z,20.74
2023-05-05T10:51:40.002Z,20.72
2023-05-05T10:54:23.642Z,20.71
2023-05-05T10:56:51.213Z,20.54
2023-05-05T10:59:36.706Z,20.67
2023-05-05T11:02:30.754Z,20.73
2023-05-05T11:05:06.998Z,20.71
2023-05-05T11:07:34.553Z,20.73
2023-05-05T11:10:04.000Z,20.68
2023-05-05T11:12:31.910Z,20.65
2023-05-05T11:15:26.641Z,20.71
2023-05-05T11:18:06.773Z,20.72
2023-05-05T11:20:37.093Z,20.73
2023-05-05T11:23:03.636Z,20.78
2023-05-05T11:25:43.465Z,20.84
2023-05-05T11:28:14.977Z,20.86
2023-05-05T11:30:57.152Z,20.90
2023-05-05T11:33:28.450Z,20.85
2023-05-05T11:36:05.809Z,20.89
2023-05-05T11:38:36.091Z,20.94
2023-05-05T11:41:35.730Z,20.89
2023-05-05T11:44:12.468Z,20.96
2023-05-05T11:46:40.823Z,21.05
2023-05-05T11:49:09.256Z,21.08
2023-05-05T11:51:38.772Z,21.08
2023-05-05T11:54:05.359Z,21.10
2023-05-05T11:56:31.903Z,21.09
2023-05-05T11:59:09.986Z,21.18
2023-05-05T12:01:41.043Z,21.11
2023-05-05T12:04:14.581Z,21.14
2023-05-05T12:06:41.535Z,21.10
2023-05-05T12:09:22.470Z,21.17
2023-05-05T12:11:53.696Z,21.26
2023-05-05T12:14:40.880Z,21.12
2023-05-05T12:17:08.519Z,21.11
2023-05-05T12:19:47.242Z,21.17
2023-05-05T12:22:24.129Z,21.11
2023-05-05T12:25:02.864Z,21.12
2023-05-05T12:27:29.531Z,21.08
2023-05-05T12:29:57.591Z,21.03
2023-05-05T12:32:33.201Z,21.10
2023-05-05T12:35:00.698Z,21.08
2023-05-05T12:37:27.723Z,21.09
2023-05-05T12:39:55.121Z,21.11
2023-05-05T12:42:24.336Z,21.15
2023-05-05T12:44:52.980Z,21.11
2023-05-05T12:47:36.862Z,21.21
2023-05-05T12:50:13.486Z,21.20
2023-05-05T12:53:03.287Z,21.22
2023-05-05T12:55:40.096Z,21.22
2023-05-05T12:58:06.754Z,21.23
2023-05-05T13:00:33.331Z,21.18
2023-05-05T13:03:00.006Z,21.21
2023-05-05T13:05:36.126Z,21.23
2023-05-05T13:08:05.317Z,21.21
2023-05-05T13:10:31.934Z,21.22
2023-05-05T13:12:59.748Z,21.21
2023-05-05T13:15:29.654Z,21.20
2023-05-05T13:18:00.770Z,21.19
2023-05-05T13:20:27.510Z,21.23
2023-05-05T13:22:57.510Z,21.23
2023-05-05T13:25:29.577Z,21.23
2023-05-05T13:27:56.133Z,21.24
2023-05-05T13:30:23.925Z,21.26
2023-05-05T13:32:53.580Z,21.23
2023-05-05T13:35:22.706Z,21.23
2023-05-05T13:37:49.342Z,21.23
2023-05-05T13:40:15.997Z,21.24
2023-05-05T13:42:42.601Z,21.25
2023-05-05T13:45:11.675Z,21.18
2023-05-05T13:47:39.224Z,21.19
2023-05-05T13:50:06.633Z,21.15
2023-05-05T13:52:42.454Z,21.16
2023-05-05T13:55:09.667Z,21.17
2023-05-05T13:57:40.713Z,21.17
2023-05-05T14:00:11.680Z,21.13
2023-05-05T14:02:38.247Z,21.11
2023-05-05T14:05:05.097Z,21.10
2023-05-05T14:07:32.702Z,21.09
2023-05-05T14:09:59.257Z,21.12
2023-05-05T14:12:27.190Z,21.08
2023-05-05T14:15:03.865Z,21.07
2023-05-05T14:17:33.265Z,21.07
2023-05-05T14:20:05.985Z,21.05
2023-05-05T14:22:35.306Z,21.02
2023-05-05T14:25:01.883Z,21.02
2023-05-05T14:27:30.752Z,21.03
2023-05-05T14:32:43.739Z,21.04
2023-05-05T14:35:10.509Z,21.05
2023-05-05T14:40:20.620Z,21.04
2023-05-05T14:42:47.169Z,21.01
2023-05-05T14:45:13.716Z,20.99
2023-05-05T14:47:40.443Z,20.97
2023-05-05T14:50:09.707Z,20.96
2023-05-05T14:52:39.060Z,21.03
2023-05-05T14:55:06.786Z,20.96
2023-05-05T14:57:33.371Z,20.93
2023-05-05T14:59:59.942Z,20.93
2023-05-05T15:02:48.190Z,20.92
2023-05-05T15:05:15.038Z,20.92
2023-05-05T15:07:41.704Z,20.93
2023-05-05T15:10:08.624Z,20.91
2023-05-05T15:12:35.262Z,20.91
2023-05-05T15:15:01.890Z,20.91
2023-05-05T15:17:28.706Z,20.93
2023-05-05T15:19:55.315Z,20.96
2023-05-05T15:22:21.915Z,20.96
2023-05-05T15:24:53.201Z,20.93
2023-05-05T15:27:19.826Z,20.96
2023-05-05T15:29:46.535Z,20.90
2023-05-05T15:32:13.141Z,20.93
2023-05-05T15:34:39.765Z,20.90
2023-05-05T15:37:06.332Z,20.90
2023-05-05T15:39:32.898Z,20.89
2023-05-05T15:42:03.676Z,20.90
2023-05-05T15:44:30.648Z,20.89
2023-05-05T15:46:57.332Z,20.88
2023-05-05T15:49:29.996Z,20.85
2023-05-05T15:52:01.662Z,20.87
2023-05-05T15:54:28.230Z,20.85
2023-05-05T15:57:04.879Z,20.87
2023-05-05T15:59:31.617Z,20.82
2023-05-05T16:01:58.200Z,20.83
2023-05-05T16:04:24.757Z,20.86
2023-05-05T16:06:51.421Z,20.79
2023-05-05T16:09:17.976Z,20.84
2023-05-05T16:11:44.713Z,20.83
2023-05-05T16:14:11.335Z,20.84
2023-05-05T16:16:37.988Z,20.76
2023-05-05T16:19:04.806Z,20.82
2023-05-05T16:21:31.559Z,20.83
2023-05-05T16:23:58.170Z,20.75
2023-05-05T16:26:24.879Z,20.76
2023-05-05T16:28:52.248Z,20.73
2023-05-05T16:31:18.932Z,20.78
2023-05-05T16:33:45.770Z,20.76
2023-05-05T16:36:12.811Z,20.71
2023-05-05T16:38:40.245Z,20.71
2023-05-05T16:41:07.167Z,20.74
2023-05-05T16:43:34.100Z,20.69
2023-05-05T16:46:00.764Z,20.63
2023-05-05T16:48:27.358Z,20.64
2023-05-05T16:50:56.111Z,20.64
2023-05-05T16:53:23.458Z,20.63
2023-05-05T16:55:51.817Z,20.60
2023-05-05T16:58:22.879Z,20.55
2023-05-05T17:00:50.335Z,20.56
2023-05-05T17:03:17.515Z,20.51
2023-05-05T17:05:46.219Z,20.54
2023-05-05T17:08:14.726Z,20.56
2023-05-05T17:10:42.194Z,20.56
2023-05-05T17:13:09.411Z,20.62
2023-05-05T17:15:36.940Z,20.60
2023-05-05T17:18:04.544Z,20.61
2023-05-05T17:20:31.269Z,20.60
2023-05-05T17:22:57.892Z,20.56
2023-05-05T17:25:27.762Z,20.56
2023-05-05T17:27:55.092Z,20.51
2023-05-05T17:30:22.153Z,20.57
2023-05-05T17:32:48.862Z,20.49
2023-05-05T17:35:19.249Z,20.51
2023-05-05T17:37:48.181Z,20.41
2023-05-05T17:40:14.733Z,20.43
2023-05-05T17:42:41.354Z,20.38
2023-05-05T17:45:08.853Z,20.38
2023-05-05T17:47:38.449Z,20.43
2023-05-05T17:50:05.446Z,20.41
2023-05-05T17:52:31.994Z,20.43
2023-05-05T17:54:58.595Z,20.41
2023-05-05T17:57:25.146Z,20.43
2023-05-05T17:59:55.661Z,20.51
2023-05-05T18:02:22.372Z,20.45
2023-05-05T18:04:49.003Z,20.42
2023-05-05T18:07:15.631Z,20.41
2023-05-05T18:09:42.412Z,20.33
2023-05-05T18:12:09.869Z,20.30
2023-05-05T18:14:36.722Z,20.32
2023-05-05T18:17:04.640Z,20.34
2023-05-05T18:19:31.305Z,20.34
2023-05-05T18:22:03.649Z,20.39
2023-05-05T18:24:30.779Z,20.35
2023-05-05T18:26:58.306Z,20.40
2023-05-05T18:29:25.465Z,20.36
2023-05-05T18:31:53.503Z,20.36
2023-05-05T18:34:22.212Z,20.34
2023-05-05T18:36:51.042Z,20.32
2023-05-05T18:39:17.902Z,20.31
2023-05-05T18:41:44.506Z,20.33
2023-05-05T18:44:11.214Z,20.29
2023-05-05T18:46:39.544Z,20.25
2023-05-05T18:49:06.386Z,20.27
2023-05-05T18:51:33.046Z,20.31
2023-05-05T18:54:00.895Z,20.29
2023-05-05T18:56:27.697Z,20.33
2023-05-05T18:58:54.277Z,20.30
2023-05-05T19:01:20.978Z,20.35
2023-05-05T19:03:48.162Z,20.32
2023-05-05T19:06:18.033Z,20.34
2023-05-05T19:08:45.582Z,20.31
2023-05-05T19:11:18.347Z,20.30
2023-05-05T19:13:47.647Z,20.31
2023-05-05T19:16:20.583Z,20.35
2023-05-05T19:18:47.173Z,20.30
2023-05-05T19:21:13.786Z,20.24
2023-05-05T19:23:42.813Z,20.29
2023-05-05T19:26:12.503Z,20.23
2023-05-05T19:28:41.657Z,20.20
2023-05-05T19:31:08.471Z,20.20
2023-05-05T19:33:37.679Z,20.21
2023-05-05T19:36:04.448Z,20.21
2023-05-05T19:38:30.996Z,20.26
2023-05-05T19:40:57.568Z,20.24
2023-05-05T19:43:24.110Z,20.21
2023-05-05T19:45:50.718Z,20.26
2023-05-05T19:48:17.332Z,20.24
2023-05-05T19:50:43.882Z,20.20
2023-05-05T19:53:10.467Z,20.22
2023-05-05T19:55:37.443Z,20.23
2023-05-05T19:58:07.694Z,20.21
2023-05-05T20:00:34.319Z,20.29
2023-05-05T20:03:01.064Z,20.21
2023-05-05T20:05:28.898Z,20.24
2023-05-05T20:07:55.519Z,20.27
2023-05-05T20:10:27.566Z,20.31
2023-05-05T20:15:21.014Z,20.24
2023-05-05T20:17:48.272Z,20.19
2023-05-05T20:20:20.461Z,20.20
2023-05-05T20:22:51.036Z,20.17
2023-05-05T20:27:46.494Z,20.22
2023-05-05T20:30:21.652Z,20.30
2023-05-05T20:32:49.782Z,20.22
2023-05-05T20:35:19.395Z,20.29
2023-05-05T20:37:49.032Z,20.34
2023-05-05T20:40:15.652Z,20.20
2023-05-05T20:42:42.202Z,20.14
2023-05-05T20:45:11.869Z,20.15
2023-05-05T20:47:38.525Z,20.15
2023-05-05T20:50:17.789Z,20.08
2023-05-05T20:52:48.519Z,20.13
2023-05-05T20:55:23.248Z,20.11
2023-05-05T20:57:49.815Z,20.18
2023-05-05T21:00:16.521Z,20.23
2023-05-05T21:02:43.264Z,20.15
2023-05-05T21:05:10.029Z,20.20
2023-05-05T21:07:40.474Z,20.19
2023-05-05T21:10:07.826Z,20.13
2023-05-05T21:12:37.592Z,20.13
2023-05-05T21:15:04.491Z,20.16
2023-05-05T21:17:31.075Z,20.14
2023-05-05T21:19:58.873Z,20.25
2023-05-05T21:22:36.894Z,20.20
2023-05-05T21:25:18.691Z,20.11
2023-05-05T21:27:46.174Z,20.15
2023-05-05T21:30:14.803Z,20.12
2023-05-05T21:32:43.002Z,20.09
2023-05-05T21:35:10.196Z,20.14
2023-05-05T21:37:38.625Z,20.05
2023-05-05T21:40:07.291Z,20.11
2023-05-05T21:42:37.687Z,20.12
2023-05-05T21:45:04.582Z,19.96
2023-05-05T21:47:31.306Z,20.04
2023-05-05T21:49:58.667Z,20.12
2023-05-05T21:52:25.217Z,20.14
2023-05-05T21:54:53.375Z,20.05
2023-05-05T21:57:20.002Z,20.12
2023-05-05T21:59:46.634Z,20.09
2023-05-05T22:02:13.228Z,20.09
2023-05-05T22:04:39.786Z,20.00
2023-05-05T22:07:06.493Z,20.05
2023-05-05T22:09:33.073Z,20.04
2023-05-05T22:11:59.683Z,19.97
2023-05-05T22:14:26.257Z,20.01
2023-05-05T22:16:52.826Z,20.04
2023-05-05T22:19:19.411Z,19.99
2023-05-05T22:21:46.131Z,20.02
2023-05-05T22:24:12.730Z,19.95
2023-05-05T22:26:43.740Z,19.94
2023-05-05T22:29:10.815Z,19.91
2023-05-05T22:31:37.592Z,20.03
2023-05-05T22:34:04.342Z,19.91
2023-05-05T22:36:31.472Z,19.95
2023-05-05T22:38:58.101Z,19.94
2023-05-05T22:41:24.828Z,19.86
2023-05-05T22:43:51.411Z,19.86
2023-05-05T22:46:18.001Z,20.00
2023-05-05T22:48:44.550Z,19.95
2023-05-05T22:51:11.338Z,19.95
2023-05-05T22:53:38.700Z,19.89
2023-05-05T22:56:06.288Z,19.91
2023-05-05T22:58:32.850Z,19.88
2023-05-05T23:00:59.643Z,19.92
2023-05-05T23:03:26.344Z,19.88
2023-05-05T23:05:52.919Z,19.85
2023-05-05T23:08:21.294Z,19.76
2023-05-05T23:10:47.849Z,19.78
2023-05-05T23:13:14.468Z,19.91
2023-05-05T23:15:41.243Z,19.87
2023-05-05T23:18:07.894Z,19.87
2023-05-05T23:20:36.162Z,19.81
2023-05-05T23:23:07.305Z,19.89
2023-05-05T23:25:33.902Z,19.86
2023-05-05T23:28:00.481Z,19.75
2023-05-05T23:30:27.087Z,19.72
2023-05-05T23:32:55.046Z,19.75
2023-05-05T23:35:21.802Z,19.83
2023-05-05T23:37:48.730Z,19.79
2023-05-05T23:40:15.309Z,19.73
2023-05-05T23:42:41.907Z,19.79
2023-05-05T23:45:09.459Z,19.77
2023-05-05T23:47:36.216Z,19.80
2023-05-05T23:50:03.422Z,19.71
2023-05-05T23:52:30.046Z,19.71
2023-05-05T23:54:56.655Z,19.73
2023-05-05T23:57:23.247Z,19.71
2023-05-05T23:59:49.803Z,19.63
